createdAt,value
2022-10-19T00:00:27.241Z,101106.00
2022-10-19T00:02:55.559Z,101106.00
2022-10-19T00:05:23.161Z,101089.94
2022-10-19T00:07:51.667Z,101097.69
2022-10-19T00:10:19.062Z,101092.34
2022-10-19T00:15:20.596Z,101094.16
2022-10-19T00:17:48.781Z,101087.56
2022-10-19T00:20:16.298Z,101079.28
2022-10-19T00:22:44.905Z,101071.66
2022-10-19T00:25:12.208Z,101074.88
2022-10-19T00:27:40.928Z,101064.97
2022-10-19T00:30:08.723Z,101065.63
2022-10-19T00:32:36.248Z,101059.25
2022-10-19T00:35:04.239Z,101060.66
2022-10-19T00:37:31.765Z,101049.53
2022-10-19T00:39:59.270Z,101046.53
2022-10-19T00:42:27.071Z,101039.69
2022-10-19T00:44:58.438Z,101047.69
2022-10-19T00:47:26.915Z,101038.81
2022-10-19T00:49:55.249Z,101037.63
2022-10-19T00:52:23.372Z,101033.25
2022-10-19T00:54:51.878Z,101030.53
2022-10-19T00:57:20.088Z,101035.16
2022-10-19T00:59:47.816Z,101038.72
2022-10-19T01:02:15.263Z,101037.03
2022-10-19T01:04:44.709Z,101032.38
2022-10-19T01:07:12.144Z,101031.91
2022-10-19T01:09:39.577Z,101032.94
2022-10-19T01:12:13.023Z,101026.22
2022-10-19T01:14:54.152Z,101027.81
2022-10-19T01:17:22.456Z,101031.38
2022-10-19T01:20:15.214Z,101021.84
2022-10-19T01:22:44.675Z,101025.25
2022-10-19T01:25:30.427Z,101023.06
2022-10-19T01:28:00.728Z,101016.78
2022-10-19T01:30:48.514Z,101021.25
2022-10-19T01:33:16.561Z,101013.28
2022-10-19T01:36:16.664Z,101013.19
2022-10-19T01:38:52.735Z,101012.34
2022-10-19T01:41:39.302Z,101019.47
2022-10-19T01:44:11.904Z,101004.44
2022-10-19T01:46:41.783Z,101001.03
2022-10-19T01:49:16.423Z,100998.06
2022-10-19T01:51:45.970Z,101002.00
2022-10-19T01:54:14.574Z,100991.56
2022-10-19T01:56:43.329Z,100999.88
2022-10-19T01:59:11.028Z,100990.22
2022-10-19T02:01:39.924Z,100985.78
2022-10-19T02:04:07.259Z,100983.97
2022-10-19T02:06:34.740Z,100979.63
2022-10-19T02:09:02.107Z,100978.44
2022-10-19T02:11:29.867Z,100970.84
2022-10-19T02:13:58.880Z,100973.97
2022-10-19T02:16:28.036Z,100966.59
2022-10-19T02:18:56.449Z,100964.31
2022-10-19T02:21:23.911Z,100953.94
2022-10-19T02:23:54.056Z,100956.03
2022-10-19T02:26:21.808Z,100958.53
2022-10-19T02:28:49.180Z,100960.44
2022-10-19T02:31:16.768Z,100954.44
2022-10-19T02:33:44.167Z,100961.91
2022-10-19T02:36:11.538Z,100951.16
2022-10-19T02:38:39.003Z,100946.34
2022-10-19T02:41:06.404Z,100940.47
2022-10-19T02:43:34.636Z,100948.31
2022-10-19T02:46:03.257Z,100937.94
2022-10-19T02:48:31.882Z,100933.09
2022-10-19T02:50:59.268Z,100926.13
2022-10-19T02:53:26.598Z,100931.06
2022-10-19T02:55:54.202Z,100922.25
2022-10-19T02:58:21.569Z,100913.91
2022-10-19T03:00:49.018Z,100900.53
2022-10-19T03:03:16.611Z,100898.75
2022-10-19T03:05:44.040Z,100892.22
2022-10-19T03:08:11.323Z,100886.19
2022-10-19T03:10:38.656Z,100896.44
2022-10-19T03:13:06.021Z,100887.19
2022-10-19T03:15:33.661Z,100889.50
2022-10-19T03:18:05.140Z,100879.94
2022-10-19T03:20:32.776Z,100882.34
2022-10-19T03:23:00.151Z,100875.97
2022-10-19T03:25:27.853Z,100875.13
2022-10-19T03:27:55.498Z,100874.31
2022-10-19T03:30:23.100Z,100872.47
2022-10-19T03:32:50.804Z,100871.41
2022-10-19T03:35:18.197Z,100868.28
2022-10-19T03:37:45.743Z,100855.16
2022-10-19T03:40:13.084Z,100851.31
2022-10-19T03:42:41.206Z,100862.66
2022-10-19T03:45:08.732Z,100849.75
2022-10-19T03:47:37.281Z,100850.09
2022-10-19T03:50:06.328Z,100834.72
2022-10-19T03:52:33.873Z,100837.38
2022-10-19T03:55:01.215Z,100832.16
2022-10-19T03:57:28.819Z,100830.13
2022-10-19T03:59:56.659Z,100826.88
2022-10-19T04:02:23.989Z,100823.41
2022-10-19T04:04:51.321Z,100806.53
2022-10-19T04:07:19.074Z,100810.28
2022-10-19T04:09:46.562Z,100798.91
2022-10-19T04:12:14.401Z,100796.03
2022-10-19T04:14:56.771Z,100799.66
2022-10-19T04:17:27.662Z,100796.16
2022-10-19T04:19:55.411Z,100786.88
2022-10-19T04:22:22.999Z,100803.28
2022-10-19T04:24:51.192Z,100795.09
2022-10-19T04:27:18.642Z,100791.81
2022-10-19T04:29:47.294Z,100780.41
2022-10-19T04:32:14.725Z,100781.81
2022-10-19T04:34:42.118Z,100778.81
2022-10-19T04:37:46.951Z,100782.06
2022-10-19T04:48:31.767Z,100760.16
2022-10-19T04:50:59.194Z,100750.31
2022-10-19T04:53:26.774Z,100754.16
2022-10-19T04:55:54.475Z,100747.41
2022-10-19T04:58:21.962Z,100738.13
2022-10-19T05:00:50.766Z,100740.00
2022-10-19T15:33:28.576Z,100175.16
2022-10-19T15:36:04.410Z,100176.13
2022-10-19T15:38:33.448Z,100171.72
2022-10-19T15:41:01.559Z,100180.22
2022-10-19T15:43:53.348Z,100182.13
2022-10-19T15:46:33.565Z,100172.44
2022-10-19T15:49:04.420Z,100175.72
2022-10-19T15:51:36.043Z,100186.34
2022-10-19T15:54:07.037Z,100177.06
2022-10-19T15:56:36.774Z,100193.06
2022-10-19T15:59:05.609Z,100192.94
2022-10-19T16:01:33.457Z,100201.06
2022-10-19T16:04:02.264Z,100193.69
2022-10-19T16:06:31.690Z,100199.34
2022-10-19T16:08:59.264Z,100202.88
2022-10-19T16:11:28.339Z,100217.03
2022-10-19T16:13:55.816Z,100222.97
2022-10-19T16:16:24.349Z,100224.31
2022-10-19T16:18:51.897Z,100223.47
2022-10-19T16:21:20.028Z,100232.56
2022-10-19T16:23:47.675Z,100243.19
2022-10-19T16:26:15.678Z,100229.91
2022-10-19T16:28:43.134Z,100231.91
2022-10-19T16:31:13.323Z,100223.63
2022-10-19T16:33:41.025Z,100228.06
2022-10-19T16:36:08.613Z,100225.34
2022-10-19T16:38:37.211Z,100235.38
2022-10-19T16:41:05.835Z,100237.59
2022-10-19T16:43:33.898Z,100242.09
2022-10-19T16:46:01.671Z,100237.63
2022-10-19T16:48:30.151Z,100245.16
2022-10-19T16:51:07.056Z,100243.47
2022-10-19T16:53:34.949Z,100246.56
2022-10-19T16:56:05.924Z,100245.44
2022-10-19T16:58:33.598Z,100247.38
2022-10-19T17:01:08.819Z,100249.06
2022-10-19T17:03:37.035Z,100247.69
2022-10-19T17:06:07.560Z,100231.53
2022-10-19T17:08:56.695Z,100233.47
2022-10-19T17:11:28.388Z,100244.03
2022-10-19T17:13:58.283Z,100239.03
2022-10-19T17:16:26.030Z,100238.47
2022-10-19T17:18:56.612Z,100211.75
2022-10-19T17:21:25.602Z,100217.03
2022-10-19T17:23:56.980Z,100219.75
2022-10-19T17:26:28.046Z,100222.00
2022-10-19T17:28:56.796Z,100207.56
2022-10-19T17:31:24.384Z,100225.34
2022-10-19T17:33:51.847Z,100229.44
2022-10-19T17:36:20.209Z,100218.63
2022-10-19T17:38:47.750Z,100226.97
2022-10-19T17:41:16.245Z,100218.88
2022-10-19T17:43:44.167Z,100223.88
2022-10-19T17:46:12.208Z,100221.09
2022-10-19T17:48:39.708Z,100219.41
2022-10-19T17:51:07.990Z,100220.28
2022-10-19T17:53:35.583Z,100224.97
2022-10-19T17:56:03.691Z,100228.31
2022-10-19T17:58:32.594Z,100233.00
2022-10-19T18:01:00.690Z,100241.09
2022-10-19T18:03:28.522Z,100233.03
2022-10-19T18:06:11.165Z,100228.31
2022-10-19T18:08:40.738Z,100236.38
2022-10-19T18:11:08.433Z,100238.47
2022-10-19T18:16:12.360Z,100238.97
2022-10-19T18:18:40.526Z,100238.47
2022-10-19T18:21:10.438Z,100227.25
2022-10-19T18:23:39.204Z,100243.13
2022-10-19T18:26:07.804Z,100232.69
2022-10-19T18:28:35.641Z,100232.53
2022-10-19T18:31:07.280Z,100243.75
2022-10-19T18:33:35.526Z,100237.22
2022-10-19T18:36:02.963Z,100239.59
2022-10-19T18:38:30.523Z,100237.91
2022-10-19T18:41:05.031Z,100229.56
2022-10-19T18:43:32.669Z,100238.66
2022-10-19T18:46:00.917Z,100231.19
2022-10-19T18:48:28.994Z,100245.38
2022-10-19T18:50:57.943Z,100230.72
2022-10-19T18:53:26.160Z,100231.44
2022-10-19T18:55:57.280Z,100229.59
2022-10-19T18:58:25.516Z,100227.53
2022-10-19T19:01:26.976Z,100233.00
2022-10-19T19:03:58.826Z,100219.72
2022-10-19T19:06:26.844Z,100216.34
2022-10-19T19:08:54.437Z,100223.75
2022-10-19T19:11:26.089Z,100221.31
2022-10-19T19:13:54.135Z,100218.19
2022-10-19T19:16:21.450Z,100214.66
2022-10-19T19:18:49.360Z,100208.41
2022-10-19T19:21:27.130Z,100206.75
2022-10-19T19:23:54.703Z,100189.00
2022-10-19T19:26:26.581Z,100197.81
2022-10-19T19:28:54.208Z,100196.69
2022-10-19T19:31:21.680Z,100213.53
2022-10-19T19:33:49.029Z,100200.75
2022-10-19T19:36:17.197Z,100206.47
2022-10-19T19:38:44.717Z,100204.66
2022-10-19T19:41:13.282Z,100216.72
2022-10-19T19:43:40.648Z,100210.56
2022-10-19T19:46:12.648Z,100213.09
2022-10-19T19:48:41.255Z,100215.63
2022-10-19T19:51:12.233Z,100214.13
2022-10-19T19:53:39.771Z,100209.88
2022-10-19T19:56:07.451Z,100206.84
2022-10-19T19:58:35.288Z,100202.16
2022-10-19T20:01:12.693Z,100209.75
2022-10-19T20:03:41.049Z,100208.19
2022-10-19T20:06:09.120Z,100200.66
2022-10-19T20:08:37.856Z,100211.47
2022-10-19T20:11:09.087Z,100219.38
2022-10-19T20:13:36.975Z,100217.66
2022-10-19T20:16:12.659Z,100211.00
2022-10-19T20:18:44.626Z,100211.69
2022-10-19T20:21:13.745Z,100214.25
2022-10-19T20:23:44.076Z,100208.59
2022-10-19T20:26:15.274Z,100211.13
2022-10-19T20:28:42.803Z,100207.72
2022-10-19T20:31:10.484Z,100204.13
2022-10-19T20:33:38.375Z,100213.31
2022-10-19T20:36:08.684Z,100211.41
2022-10-19T20:38:37.357Z,100196.19
2022-10-19T20:41:07.810Z,100193.41
2022-10-19T20:43:36.686Z,100183.75
2022-10-19T20:46:06.513Z,100173.56
2022-10-19T20:48:34.133Z,100178.97
2022-10-19T20:51:08.571Z,100173.91
2022-10-19T20:53:37.834Z,100190.06
2022-10-19T20:56:06.059Z,100174.00
2022-10-19T20:58:33.767Z,100168.06
2022-10-19T21:01:14.183Z,100173.97
2022-10-19T21:03:45.409Z,100168.91
2022-10-19T21:06:13.061Z,100169.50
2022-10-19T21:08:40.374Z,100171.72
2022-10-19T21:11:11.795Z,100169.47
2022-10-19T21:13:39.184Z,100166.94
2022-10-19T21:16:17.485Z,100158.63
2022-10-19T21:18:45.163Z,100160.81
2022-10-19T21:21:19.162Z,100155.59
2022-10-19T21:23:47.025Z,100155.00
2022-10-19T21:26:14.556Z,100157.22
2022-10-19T21:28:46.106Z,100163.03
2022-10-19T21:31:13.546Z,100160.75
2022-10-19T21:33:42.121Z,100151.91
2022-10-19T21:36:09.777Z,100161.38
2022-10-19T21:38:39.041Z,100157.03
2022-10-19T21:41:07.539Z,100161.81
2022-10-19T21:43:34.877Z,100151.16
2022-10-19T21:46:02.972Z,100150.34
2022-10-19T21:48:30.370Z,100157.44
2022-10-19T21:50:57.765Z,100152.41
2022-10-19T21:53:25.129Z,100158.16
2022-10-19T21:55:52.997Z,100149.75
2022-10-19T21:58:23.062Z,100154.91
2022-10-19T22:00:50.395Z,100158.03
2022-10-19T22:03:18.542Z,100159.16
2022-10-19T22:05:51.964Z,100143.78
2022-10-19T22:08:19.442Z,100146.34
2022-10-19T22:10:46.803Z,100147.81
2022-10-19T22:13:14.179Z,100140.19
2022-10-19T22:15:41.898Z,100148.72
2022-10-19T22:18:13.052Z,100151.69
2022-10-19T22:20:40.447Z,100152.53
2022-10-19T22:23:08.169Z,100140.22
2022-10-19T22:25:35.554Z,100133.84
2022-10-19T22:28:02.914Z,100140.38
2022-10-19T22:30:30.551Z,100142.44
2022-10-19T22:32:57.850Z,100140.91
2022-10-19T22:35:25.168Z,100134.72
2022-10-19T22:37:52.562Z,100134.59
2022-10-19T22:40:20.230Z,100122.28
2022-10-19T22:42:47.516Z,100123.38
2022-10-19T22:45:14.908Z,100128.59
2022-10-19T22:47:42.604Z,100120.56
2022-10-19T22:50:11.965Z,100122.00
2022-10-19T22:52:39.433Z,100126.94
2022-10-19T22:55:07.072Z,100121.19
2022-10-19T22:57:34.524Z,100124.50
2022-10-19T23:00:01.866Z,100125.56
2022-10-19T23:02:29.536Z,100124.44
2022-10-19T23:04:58.747Z,100122.66
2022-10-19T23:07:26.092Z,100113.06
2022-10-19T23:09:53.432Z,100114.47
2022-10-19T23:12:21.026Z,100111.28
2022-10-19T23:14:49.374Z,100108.75
2022-10-19T23:17:18.788Z,100108.50
2022-10-19T23:19:46.355Z,100107.56
2022-10-19T23:22:13.675Z,100108.53
2022-10-19T23:24:40.996Z,100107.28
2022-10-19T23:27:08.404Z,100106.22
2022-10-19T23:29:35.973Z,100106.44
2022-10-19T23:32:03.246Z,100098.31
2022-10-19T23:34:31.192Z,100095.22
2022-10-19T23:36:58.519Z,100089.09
2022-10-19T23:39:27.270Z,100092.19
2022-10-19T23:41:54.777Z,100091.00
2022-10-19T23:44:22.186Z,100087.72
2022-10-19T23:46:49.611Z,100093.84
2022-10-19T23:49:16.939Z,100095.53
2022-10-19T23:51:44.862Z,100082.03
2022-10-19T23:54:12.407Z,100079.13
2022-10-19T23:56:39.771Z,100074.75
2022-10-19T23:59:09.757Z,100071.41
